Latest Weather Observations for Geraldton Airport

IDW60801

Issued at 7:03 am WST Saturday 1 August 2015 (issued every 30 minutes, with the page automatically refreshed every 10 minutes)

About weather observations | Map of weather stations | Latest weather observations for WA | Other Formats
Station Details ID: 008315 Name: GERALDTON AIRPORT Lat: -28.80 Lon: 114.70 Height: 29.7 m
Data from the previous 72 hours. | See also: Recent months at Geraldton Airport
Date/Time
WST
Temp
°C
App
Temp
°C
Dew
Point
Rel
Hum
%
Delta-T
°C
Wind Press
QNH
hPa
Press
MSL
hPa
Rain
since 9 am
mm
Dir
 
Spd
km/h
Gust
km/h
Spd
kts
Gust
kts
01/07:00am 10.3 7.9 9.9 97 0.2 NNE 13 15 7 8 1017.5 - 7.2
01/06:30am 10.1 8.0 9.7 97 0.2 NNE 11 13 6 7 1017.1 - 7.2
01/06:00am 9.5 7.7 9.4 99 0.0 NE 9 11 5 6 1016.7 1016.7 7.2
01/05:30am 9.2 7.6 8.6 96 0.3 NE 7 9 4 5 1016.3 - 7.2
01/05:00am 9.9 8.1 9.5 97 0.2 NNE 9 9 5 5 1016.0 - 7.2
01/04:52am 9.9 8.5 9.5 97 0.2 NNE 7 9 4 5 1016.0 - 7.2
01/04:30am 9.9 9.8 9.6 98 0.1 CALM 0 0 0 0 1015.8 - 7.2
01/04:22am 10.2 10.3 10.0 99 0.1 CALM 0 0 0 0 1015.7 - 7.2
01/04:00am 10.2 9.1 9.8 97 0.2 E 6 6 3 3 1015.7 - 7.2
01/03:30am 10.4 9.1 10.0 97 0.2 SE 7 11 4 6 1015.7 - 7.2
01/03:00am 10.8 9.6 10.4 97 0.2 ENE 7 9 4 5 1015.6 1015.6 7.2
01/02:30am 11.3 9.9 10.9 97 0.2 NE 9 9 5 5 1015.5 - 7.2
01/02:00am 11.6 10.3 11.4 99 0.1 NNE 9 13 5 7 1015.4 - 7.2
01/01:30am 12.4 10.9 11.9 97 0.3 NNE 11 11 6 6 1015.2 - 7.2
01/01:00am 11.7 10.7 11.1 96 0.3 NE 7 9 4 5 1015.1 - 7.2
01/12:30am 12.5 11.8 12.0 97 0.3 ESE 7 7 4 4 1015.0 - 7.2
01/12:00am 12.2 11.0 11.6 96 0.3 N 9 11 5 6 1014.8 1014.8 7.2
 
Date/Time
WST
Temp
°C
App
Temp
°C
Dew
Point
Rel
Hum
%
Delta-T
°C
Wind Press
QNH
hPa
Press
MSL
hPa
Rain
since 9 am
mm
Dir
 
Spd
km/h
Gust
km/h
Spd
kts
Gust
kts
31/11:30pm 12.5 11.0 11.9 96 0.3 N 11 11 6 6 1014.7 - 7.2
31/11:00pm 13.1 12.6 12.2 94 0.5 NW 6 7 3 4 1014.9 - 7.2
31/10:30pm 15.0 13.9 13.0 88 1.1 SW 11 13 6 7 1014.6 - 7.2
31/10:00pm 15.4 13.8 12.9 85 1.4 WSW 13 15 7 8 1014.6 - 7.2
31/09:30pm 14.8 14.1 13.1 89 0.9 SW 9 13 5 7 1014.3 - 7.2
31/09:00pm 14.8 14.3 13.9 94 0.5 N 9 11 5 6 1014.1 1014.1 7.2
31/08:30pm 14.7 13.8 13.8 94 0.5 N 11 13 6 7 1013.8 - 7.2
31/08:00pm 15.3 14.9 14.1 92 0.7 NNW 9 11 5 6 1013.7 - 7.2
31/07:30pm 16.2 15.0 14.1 87 1.2 WNW 13 15 7 8 1013.3 - 7.2
31/07:00pm 16.6 13.0 13.2 80 1.9 WSW 24 33 13 18 1013.1 - 7.2
31/06:30pm 17.5 15.0 14.1 80 1.9 WNW 20 26 11 14 1012.7 - 7.2
31/06:00pm 17.1 15.2 14.2 83 1.7 NNW 17 19 9 10 1012.2 1012.2 7.2
31/05:33pm 16.7 14.4 14.6 87 1.2 WNW 20 30 11 16 1012.4 - 7.2
31/05:30pm 16.7 14.0 14.6 87 1.2 WNW 22 30 12 16 1012.4 - 7.2
31/05:09pm 18.0 15.3 14.7 81 1.9 WNW 22 50 12 27 1012.3 - 6.6
31/05:00pm 19.1 15.8 12.8 67 3.5 NW 22 30 12 16 1012.0 - 6.6
31/04:30pm 19.4 14.9 12.5 64 3.9 WNW 28 39 15 21 1012.0 - 6.6
31/04:00pm 20.6 15.8 12.8 61 4.4 W 30 39 16 21 1011.8 - 6.6
31/03:30pm 20.9 18.3 14.8 68 3.6 WNW 22 32 12 17 1011.7 - 6.6
31/03:00pm 20.9 18.9 15.4 71 3.3 WNW 20 28 11 15 1012.0 1012.0 6.6
31/02:30pm 19.5 18.1 15.5 77 2.4 W 17 24 9 13 1012.1 - 6.6
31/02:00pm 19.8 19.3 16.9 83 1.8 W 15 20 8 11 1012.3 - 6.6
31/01:30pm 18.2 17.2 16.7 91 0.9 W 17 26 9 14 1012.8 - 6.6
31/01:13pm 18.3 17.6 16.3 88 1.2 W 15 22 8 12 1012.3 - 6.6
31/01:00pm 18.4 17.2 16.2 87 1.3 W 17 22 9 12 1013.1 - 6.6
31/12:30pm 18.2 19.3 17.2 94 0.6 W 7 11 4 6 1012.9 - 6.6
31/12:00pm 17.6 16.6 16.6 94 0.6 W 17 22 9 12 1013.9 1013.9 6.0
31/11:47am 17.6 17.0 16.6 94 0.6 SW 15 20 8 11 1013.5 - 6.0
31/11:30am 17.6 16.6 16.6 94 0.6 WSW 17 22 9 12 1014.0 - 5.6
31/11:08am 18.0 14.2 16.7 92 0.8 WSW 32 35 17 19 1014.1 - 4.6
31/11:00am 18.6 19.0 17.3 92 0.8 W 11 17 6 9 - - -
31/10:54am 18.6 19.0 17.3 92 0.8 W 11 17 6 9 1013.7 - 4.4
31/10:30am 18.2 17.9 17.4 95 0.5 WSW 15 20 8 11 1013.2 - 4.4
31/10:14am 17.8 15.6 17.0 95 0.5 WSW 24 35 13 19 1013.9 - 4.4
31/10:00am 17.9 15.0 17.1 95 0.5 WSW 28 41 15 22 1014.1 - 4.2
31/09:46am 18.1 15.6 17.2 94 0.5 WSW 26 35 14 19 1013.8 - 3.8
31/09:30am 18.4 16.4 17.5 94 0.5 WSW 24 32 13 17 1013.5 - 3.8
31/09:00am 18.5 20.2 18.0 97 0.3 NNW 6 9 3 5 1013.0 1013.0 8.0
31/08:42am 18.4 19.8 17.9 97 0.3 N 7 11 4 6 1013.3 - 7.2
31/08:30am 18.3 19.9 17.8 97 0.3 NW 6 9 3 5 1013.3 - 6.4
31/08:27am 18.3 20.3 17.8 97 0.3 NNW 4 9 2 5 1013.4 - 6.2
31/08:00am 18.1 19.5 17.7 97 0.2 NNW 7 9 4 5 1013.5 - 6.2
31/07:44am 17.9 19.2 17.6 98 0.2 NW 7 9 4 5 1013.6 - 6.2
31/07:30am 17.7 18.9 17.4 98 0.2 NNW 7 9 4 5 1013.6 - 6.2
31/07:22am 17.6 18.7 17.1 97 0.3 N 7 9 4 5 1013.5 - 6.2
31/07:00am 17.7 17.3 17.2 97 0.3 WNW 15 22 8 12 1013.4 - 5.6
31/06:55am 17.7 17.3 17.2 97 0.3 WNW 15 22 8 12 1013.3 - 5.6
31/06:30am 17.6 17.9 17.1 97 0.3 N 11 13 6 7 1013.5 - 4.0
31/06:00am 17.9 17.3 16.6 92 0.8 NNW 15 19 8 10 1013.3 1013.3 2.0
31/05:48am 17.8 16.8 16.6 93 0.7 N 17 24 9 13 1013.2 - 2.0
31/05:30am 18.5 19.7 18.2 98 0.2 N 9 13 5 7 1013.2 - 1.8
31/05:00am 18.0 19.4 17.7 98 0.2 N 7 9 4 5 1013.3 - 1.2
31/04:30am 17.8 18.3 17.5 98 0.2 NE 11 11 6 6 1013.5 - 1.2
31/04:00am 18.7 20.4 18.5 99 0.1 N 7 9 4 5 1014.2 - 1.0
31/03:43am 18.8 20.7 18.5 98 0.2 NNW 6 6 3 3 1014.4 - 1.0
31/03:30am 18.5 20.6 18.2 98 0.2 NNW 4 7 2 4 1014.5 - 1.0
31/03:00am 18.7 21.7 18.4 98 0.2 CALM 0 0 0 0 1014.4 1014.4 1.0
31/02:30am 18.8 21.4 18.4 98 0.2 WNW 2 9 1 5 1015.2 - 1.0
31/02:29am 18.8 21.4 18.4 98 0.2 WNW 2 9 1 5 1015.2 - 1.0
31/02:28am 18.7 21.7 18.4 98 0.2 CALM 0 9 0 5 1015.2 - 1.0
31/02:00am 19.5 21.6 18.9 96 0.4 WNW 6 9 3 5 1015.4 - 0.8
31/01:53am 19.5 21.4 18.9 96 0.4 NNW 7 9 4 5 1015.8 - 0.6
31/01:30am 19.4 21.2 18.8 96 0.4 NW 7 11 4 6 1016.0 - 0.2
31/01:00am 20.1 21.6 19.0 93 0.7 W 9 15 5 8 1016.0 - 0.2
31/12:30am 20.3 21.0 18.9 92 0.9 NNW 13 19 7 10 1016.3 - 0.2
31/12:07am 20.3 20.7 18.9 92 0.9 NNW 15 20 8 11 1016.5 - 0.2
31/12:00am 20.2 20.5 18.8 92 0.9 NNW 15 20 8 11 1016.5 1016.5 0.2
 
Date/Time
WST
Temp
°C
App
Temp
°C
Dew
Point
Rel
Hum
%
Delta-T
°C
Wind Press
QNH
hPa
Press
MSL
hPa
Rain
since 9 am
mm
Dir
 
Spd
km/h
Gust
km/h
Spd
kts
Gust
kts
30/11:30pm 20.0 20.3 18.7 92 0.8 N 15 17 8 9 1016.9 - 0.2
30/11:00pm 18.2 18.3 17.4 95 0.5 NNE 13 15 7 8 1017.1 - 0.2
30/10:30pm 18.4 18.5 17.4 94 0.6 NNE 13 17 7 9 1017.2 - 0.2
30/10:00pm 18.9 19.1 17.6 92 0.8 N 13 17 7 9 1017.4 - 0.2
30/09:30pm 19.2 19.0 17.5 90 1.0 NNE 15 17 8 9 1017.6 - 0.2
30/09:00pm 19.1 18.5 17.5 90 1.0 NE 17 20 9 11 1017.9 1018.0 0.2
30/08:30pm 19.4 19.2 17.5 89 1.2 NNE 15 19 8 10 1017.9 - 0.2
30/08:00pm 19.3 19.4 17.4 89 1.2 NNE 13 17 7 9 1017.8 - 0.2
30/07:30pm 19.4 20.6 17.4 88 1.2 NNE 7 15 4 8 1017.7 - 0.2
30/07:00pm 19.5 20.7 17.3 87 1.3 E 7 11 4 6 1017.3 - 0.2
30/06:30pm 19.7 20.1 17.3 86 1.5 NE 11 19 6 10 1017.0 - 0.2
30/06:00pm 19.9 19.7 17.5 86 1.5 NE 15 19 8 10 1016.7 1016.7 0.2
30/05:30pm 19.9 18.7 17.5 86 1.5 ENE 20 26 11 14 1016.5 - 0.2
30/05:00pm 20.0 18.9 17.8 87 1.4 E 20 28 11 15 1016.3 - 0.2
30/04:30pm 20.2 18.8 18.0 87 1.4 E 22 28 12 15 1016.3 - 0.2
30/04:00pm 20.3 18.9 18.0 87 1.4 E 22 28 12 15 1016.3 - 0.2
30/03:30pm 19.9 20.5 18.5 92 0.9 ESE 13 17 7 9 1016.9 - 0.2
30/03:00pm 18.9 19.2 17.9 94 0.6 SE 13 17 7 9 1017.6 1017.7 0.0
30/02:30pm 19.0 19.1 17.5 91 0.9 SE 13 17 7 9 1018.1 - 0.0
30/02:00pm 18.8 18.1 17.4 91 0.9 SE 17 20 9 11 1018.4 - 0.0
30/01:30pm 18.7 17.7 17.5 93 0.7 SE 19 22 10 12 1018.7 - 0.0
30/01:00pm 18.9 18.6 17.4 91 0.9 SSE 15 20 8 11 1019.2 - 0.0
30/12:30pm 19.2 18.8 17.1 88 1.3 SE 15 17 8 9 1019.6 - 0.0
30/12:00pm 19.4 18.2 17.0 86 1.5 SSW 19 24 10 13 1020.1 1020.2 0.0
30/11:30am 20.1 19.6 15.8 76 2.6 N 13 19 7 10 1019.9 - 0.0
30/11:00am 19.7 17.9 15.5 77 2.5 N 19 24 10 13 1019.8 - 0.0
30/10:30am 19.8 18.3 15.4 76 2.6 NNE 17 24 9 13 1020.1 - 0.0
30/10:00am 19.9 20.4 16.5 81 2.0 NNE 9 13 5 7 1020.3 - 0.0
30/09:30am 19.4 20.5 16.7 84 1.6 NE 6 11 3 6 1020.1 - 0.0
30/09:00am 19.2 19.7 16.6 85 1.6 N 9 13 5 7 1019.9 1020.0 0.4
30/08:30am 18.8 18.1 16.5 86 1.4 NNE 15 19 8 10 1019.2 - 0.4
30/08:00am 18.8 17.0 16.0 84 1.7 NNE 20 26 11 14 1019.1 - 0.4
30/07:30am 18.3 17.5 16.0 86 1.4 NNE 15 19 8 10 1018.6 - 0.4
30/07:00am 17.8 17.1 16.3 91 0.9 NNE 15 19 8 10 1018.4 - 0.4
30/06:30am 17.8 16.8 16.5 92 0.8 NNE 17 19 9 10 1018.0 - 0.4
30/06:00am 18.4 17.4 16.6 89 1.1 NNE 17 20 9 11 1018.2 1018.3 0.4
30/05:30am 18.2 18.4 16.7 91 0.9 N 11 17 6 9 1018.6 - 0.4
30/05:00am 18.2 18.0 16.8 91 0.8 N 13 15 7 8 1018.6 - 0.4
30/04:30am 18.0 18.2 16.8 93 0.7 NNE 11 13 6 7 1018.7 - 0.4
30/04:00am 18.3 18.9 16.7 90 1.0 NNW 9 13 5 7 1018.9 - 0.4
30/03:30am 17.5 16.5 16.5 94 0.6 NNE 17 20 9 11 1018.9 - 0.4
30/03:00am 17.4 15.0 15.5 89 1.1 NNE 22 28 12 15 1019.2 1019.3 0.4
30/02:30am 17.4 17.1 15.5 89 1.1 NNE 11 19 6 10 1019.4 - 0.4
30/02:00am 17.9 17.7 16.8 93 0.7 NNE 13 17 7 9 1019.6 - 0.4
30/01:30am 18.3 17.5 17.2 93 0.7 NNE 17 22 9 12 1019.7 - 0.4
30/01:00am 18.3 18.0 17.3 94 0.6 NNE 15 24 8 13 1019.8 - 0.4
30/12:30am 18.3 17.7 17.5 95 0.5 NNE 17 20 9 11 1019.7 - 0.4
30/12:00am 18.4 18.2 17.5 94 0.5 NNE 15 20 8 11 1020.2 1020.3 0.4
 
Date/Time
WST
Temp
°C
App
Temp
°C
Dew
Point
Rel
Hum
%
Delta-T
°C
Wind Press
QNH
hPa
Press
MSL
hPa
Rain
since 9 am
mm
Dir
 
Spd
km/h
Gust
km/h
Spd
kts
Gust
kts
29/11:30pm 18.4 18.4 17.3 93 0.7 N 13 17 7 9 1020.5 - 0.4
29/11:00pm 18.8 18.2 17.5 92 0.8 N 17 26 9 14 1020.2 - 0.4
29/10:30pm 18.9 17.9 17.5 92 0.9 N 19 20 10 11 1020.3 - 0.4
29/10:00pm 19.1 19.3 17.7 92 0.9 N 13 20 7 11 1020.2 - 0.2
29/09:30pm 18.4 19.8 17.9 97 0.3 N 7 9 4 5 1019.7 - 0.2
29/09:00pm 18.5 18.9 18.1 97 0.2 NNE 13 15 7 8 1019.3 1019.4 0.2
29/08:30pm 18.7 19.9 18.3 98 0.2 N 9 13 5 7 1019.4 - 0.2
29/08:00pm 18.8 19.7 18.4 98 0.2 N 11 13 6 7 1019.5 - 0.2
29/07:30pm 18.0 18.9 17.5 97 0.3 NNE 9 13 5 7 1019.3 - 0.2
29/07:00pm 18.7 21.3 18.3 98 0.2 N 2 6 1 3 1019.0 - 0.2
29/06:30pm 18.7 20.3 18.3 98 0.2 N 7 9 4 5 1018.5 - 0.2
29/06:00pm 19.3 20.7 18.7 96 0.4 N 9 11 5 6 1018.3 1018.4 0.2
29/05:30pm 20.2 21.7 19.0 93 0.8 N 9 11 5 6 1018.3 - 0.2
29/05:00pm 20.7 22.2 19.0 90 1.1 WNW 9 11 5 6 1018.6 - 0.2
29/04:30pm 20.9 22.9 19.2 90 1.1 WNW 7 9 4 5 1018.2 - 0.2
29/04:00pm 20.9 21.8 19.2 90 1.1 NW 13 17 7 9 1018.5 - 0.2
29/03:47pm 20.9 21.0 19.2 90 1.1 NW 17 20 9 11 1018.6 - 0.2
29/03:30pm 21.1 22.0 19.2 89 1.2 NW 13 17 7 9 1018.3 - 0.2
29/03:18pm 21.1 21.2 19.2 89 1.2 NW 17 20 9 11 1018.1 - 0.2
29/03:13pm 21.1 21.2 19.2 89 1.2 NW 17 19 9 10 1018.0 - 0.2
29/03:00pm 21.1 21.2 19.2 89 1.2 NW 17 20 9 11 1018.1 1018.2 0.2
29/02:30pm 21.7 21.7 19.0 84 1.7 WNW 17 22 9 12 1018.1 - 0.2
29/02:00pm 21.8 21.4 18.8 83 1.9 NW 19 24 10 13 1018.1 - 0.2
29/01:30pm 21.9 21.3 18.8 82 2.0 NW 20 26 11 14 1018.5 - 0.2
29/01:00pm 21.9 20.8 18.6 81 2.1 NW 22 26 12 14 1018.5 - 0.2
29/12:30pm 23.5 23.2 19.5 78 2.6 WNW 20 26 11 14 1018.9 - 0.0
29/12:00pm 22.5 22.2 19.2 81 2.1 WNW 19 26 10 14 1019.4 1019.5 0.0
29/11:30am 22.2 21.4 18.4 79 2.4 NW 20 26 11 14 1019.5 - 0.0
29/11:00am 21.7 22.3 18.5 82 2.0 NW 13 17 7 9 1019.4 - 0.0
29/10:30am 20.4 23.7 19.0 92 0.9 CALM 0 7 0 4 1019.6 - 0.0
29/10:00am 19.4 20.8 18.6 95 0.5 NNE 9 13 5 7 1019.7 - 0.0
29/09:30am 19.5 21.2 18.6 94 0.6 NE 7 11 4 6 1019.5 - 0.0
29/09:00am 19.3 20.6 18.4 94 0.6 NNE 9 11 5 6 1019.5 1019.6 4.0
29/08:30am 18.2 18.8 17.8 97 0.2 NNE 11 13 6 7 1019.4 - 4.0
29/08:00am 17.7 18.5 17.4 98 0.2 NNE 9 11 5 6 1019.1 - 4.0
29/07:30am 17.4 18.1 17.1 98 0.2 NNE 9 11 5 6 1018.8 - 4.0

Other Formats:

Comma delimited format used in spreadsheet applications
http://www.bom.gov.au/fwo/IDW60801/IDW60801.94403.axf

JavaScript Object Notation format (JSON) in row-major order
http://www.bom.gov.au/fwo/IDW60801/IDW60801.94403.json